• Join FlightAware (Why Join?)
  • Login
  • US Flag 
06:14AM EDT


 

Airport Tracker/Info


-or-


 

Live Flight TrackerFlight Track Log ✈ SKW5535 ✈ 13-Aug-2013 ✈ KMSO - KDEN

Flight Track Log - Related Links

Times and Time Zones

All times are in EDT time to prevent confusion due to time zone crossing. See the SKW5535 flight status page for this flight to view local times or setup timezone preferences in your user account.

Time Position Orientation Groundspeed Altitude Reporting Facility
EDT Latitude Longitude Course Direction KTS MPH feet Rate Location/Type
03:09PM 46.8222 -114.0672 130° Southeast 222 255 7,000  Level Salt Lake Center
03:10PM 46.5263 -114.0358 126° Southeast  Level FlightAware Approximate
03:10PM 46.7586 -114.0536 172° South 231 266 9,400  Level Salt Lake Center
03:11PM 46.4602 -113.9037 126° Southeast  Level FlightAware Approximate
03:11PM 46.6894 -114.0286 166° South 248 285 11,100  Level Salt Lake Center
03:12PM 46.3802 -113.7906 116° Southeast  Level FlightAware Approximate
03:12PM 46.6369 -113.9322 128° Southeast 309 356 11,800  Level Salt Lake Center
03:13PM 46.3143 -113.6619 126° Southeast  Level FlightAware Approximate
03:13PM 46.5733 -113.8211 130° Southeast 334 384 13,600  Level Salt Lake Center
03:14PM 46.2446 -113.5364 130° Southeast  Level FlightAware Approximate
03:14PM 46.5083 -113.7128 131° Southeast 355 409 14,100  Level Salt Lake Center
03:15PM 46.4367 -113.5878 130° Southeast 373 429 16,300 1,740 Climbing Salt Lake Center
03:16PM 46.3725 -113.4792 131° Southeast 359 413 17,700 960 Climbing Salt Lake Center
03:17PM 46.3044 -113.3692 132° Southeast 368 423 18,400 840 Climbing Salt Lake Center
03:18PM 46.2286 -113.2464 132° Southeast 377 434 19,500 1,020 Climbing Salt Lake Center
03:19PM 46.1572 -113.1292 131° Southeast 387 445 20,600 960 Climbing Salt Lake Center
03:20PM 46.0878 -113.0114 130° Southeast 388 447 21,600 720 Climbing Salt Lake Center
03:21PM 46.0147 -112.8931 132° Southeast 394 453 22,200 720 Climbing Salt Lake Center
03:22PM 45.9422 -112.7731 131° Southeast 398 458 23,100 720 Climbing Salt Lake Center
03:23PM 45.8675 -112.6522 132° Southeast 403 464 23,800 720 Climbing Salt Lake Center
03:24PM 45.7783 -112.5053 131° Southeast 407 468 24,600 600 Climbing Salt Lake Center
03:25PM 45.7017 -112.3819 132° Southeast 413 475 25,100 480 Climbing Salt Lake Center
03:26PM 45.6242 -112.2556 131° Southeast 421 484 25,600 480 Climbing Salt Lake Center
03:27PM 45.5450 -112.1297 132° Southeast 427 491 26,100 480 Climbing Salt Lake Center
03:28PM 45.4656 -112.0025 132° Southeast 430 495 26,600 480 Climbing Salt Lake Center
03:29PM 45.3861 -111.8750 132° Southeast 432 497 27,200 720 Climbing Salt Lake Center
03:30PM 45.2911 -111.7244 132° Southeast 430 495 28,200 960 Climbing Salt Lake Center
03:31PM 45.2139 -111.6011 132° Southeast 424 488 29,300 1,020 Climbing Salt Lake Center
03:32PM 45.1383 -111.4842 132° Southeast 412 474 30,400 960 Climbing Salt Lake Center
03:33PM 45.0519 -111.3875 142° Southeast 395 455 31,300 720 Climbing Salt Lake Center
03:34PM 44.9528 -111.2906 145° Southeast 390 449 31,900 540 Climbing Salt Lake Center
03:35PM 44.8644 -111.2131 148° Southeast 389 448 32,500 480 Climbing Salt Lake Center
03:36PM 44.7622 -111.1228 148° Southeast 386 444 33,000 240 Climbing Salt Lake Center
03:37PM 44.6708 -111.0503 151° Southeast 389 448 33,000  Level Salt Lake Center
03:39PM 44.5764 -110.9792 152° Southeast 396 456 33,000  Level Salt Lake Center
03:40PM 44.4858 -110.8525 135° Southeast 409 471 33,000  Level Salt Lake Center
03:41PM 44.3975 -110.7572 142° Southeast 414 476 33,000  Level Salt Lake Center
03:42PM 44.2906 -110.6492 144° Southeast 423 487 33,000  Level Salt Lake Center
03:43PM 44.2106 -110.5367 135° Southeast 435 501 33,000  Level Salt Lake Center
03:44PM 44.1417 -110.3733 120° Southeast 438 504 33,000  Level Salt Lake Center
03:45PM 44.0819 -110.2331 121° Southeast 440 506 33,000  Level Salt Lake Center
03:46PM 44.0133 -110.1008 126° Southeast 440 506 33,000  Level Salt Lake Center
03:47PM 43.9314 -109.9475 127° Southeast 442 509 33,000  Level Salt Lake Center
03:48PM 43.8608 -109.8178 127° Southeast 441 507 33,000  Level Salt Lake Center
03:49PM 43.7789 -109.6642 126° Southeast 443 510 33,000  Level Salt Lake Center
03:50PM 43.7050 -109.5392 129° Southeast 440 506 33,000  Level Salt Lake Center
03:51PM 43.6197 -109.3908 128° Southeast 441 507 33,000  Level Salt Lake Center
03:52PM 43.5467 -109.2639 128° Southeast 442 509 33,000  Level Salt Lake Center
03:53PM 43.4633 -109.1386 132° Southeast 443 510 33,000  Level Salt Lake Center
03:54PM 43.3697 -109.0006 133° Southeast 442 509 33,000  Level Salt Lake Center
03:55PM 43.2908 -108.8808 132° Southeast 441 507 33,000  Level Salt Lake Center
03:56PM 43.1981 -108.7428 133° Southeast 441 507 33,000  Level Salt Lake Center
03:57PM 43.1181 -108.6225 132° Southeast 444 511 33,000  Level Salt Lake Center
03:58PM 43.0253 -108.4847 133° Southeast 442 509 33,000  Level Salt Lake Center
03:59PM 42.9450 -108.3667 133° Southeast 443 510 33,000  Level Salt Lake Center
04:00PM 42.8517 -108.2283 133° Southeast 445 512 33,000  Level Salt Lake Center
04:01PM 42.7714 -108.1108 133° Southeast 443 510 33,000  Level Salt Lake Center
04:02PM 42.6911 -107.9925 133° Southeast 444 511 33,000  Level Salt Lake Center
04:03PM 42.5986 -107.8572 133° Southeast 439 505 33,000  Level Salt Lake Center
04:04PM 42.5186 -107.7406 133° Southeast 440 506 33,000  Level Salt Lake Center
04:05PM 42.4242 -107.6047 133° Southeast 441 507 33,000  Level Salt Lake Center
04:06PM 42.3486 -107.4792 129° Southeast 447 514 33,000  Level Salt Lake Center
04:07PM 42.2661 -107.3200 125° Southeast 451 519 33,000  Level Denver Center
04:08PM 42.2142 -107.1714 115° Southeast 456 525 33,000  Level Denver Center
04:10PM 42.1986 -106.9786 96° East 465 535 33,000  Level Denver Center
04:11PM 42.1892 -106.8122 94° East 465 535 33,000  Level Denver Center
04:12PM 42.1756 -106.6178 95° East 467 537 33,000  Level Denver Center
04:13PM 42.1636 -106.4392 95° East 464 534 33,000  Level Denver Center
04:14PM 42.1500 -106.2719 96° East 469 540 33,000  Level Denver Center
04:15PM 42.1344 -106.0775 96° East 468 539 33,000  Level Denver Center
04:16PM 42.1206 -105.9103 96° East 470 541 33,000  Level Denver Center
04:17PM 42.1039 -105.7142 96° East 473 544 33,000  Level Denver Center
04:18PM 42.0897 -105.5475 96° East 471 542 33,000  Level Denver Center
04:19PM 42.0728 -105.3519 97° East 473 544 33,000  Level Denver Center
04:20PM 42.0611 -105.2125 96° East 472 543 33,000  Level Denver Center
04:21PM 42.0403 -104.9861 97° East 479 551 33,000  Level Denver Center
04:22PM 42.0239 -104.8183 97° East 477 549 33,000  Level Denver Center
04:23PM 42.0050 -104.6236 97° East 474 545 33,000  Level Denver Center
04:24PM 41.9892 -104.4556 97° East 475 547 33,000  Level Denver Center
04:25PM 41.9700 -104.2589 97° East 477 549 33,000  Level Denver Center
04:26PM 41.9167 -104.1083 115° Southeast 475 547 33,000  Level Denver Center
04:27PM 41.8178 -104.0114 144° Southeast 463 533 33,000  Level Denver Center
04:28PM 41.6869 -103.9408 158° South 456 525 33,000  Level Denver Center
04:29PM 41.5797 -103.8783 156° South 443 510 33,000  Level Denver Center
04:30PM 41.4592 -103.8067 156° South 428 493 33,000 -300 Level Denver Center
04:31PM 41.3839 -103.6869 130° Southeast 449 517 32,500 -540 Descending Denver Center
04:32PM 41.3314 -103.5175 112° Southeast 447 514 32,000 -300 Descending Denver Center
04:33PM 41.2439 -103.4258 142° Southeast 421 484 32,000  Level Denver Center
04:34PM 41.1178 -103.4064 173° South 409 471 32,000  Level Denver Center
04:35PM 41.0169 -103.4594 202° Southwest 410 472 32,000 -780 Level Denver Center
04:36PM 40.9069 -103.5197 202° Southwest 400 460 30,500 -1,680 Descending Denver Center
04:37PM 40.8233 -103.5997 216° Southwest 380 437 28,600 -1,500 Descending Denver Center
04:38PM 40.7381 -103.6750 214° Southwest 370 426 27,400 -1,380 Descending Denver Center
04:39PM 40.6500 -103.7506 213° Southwest 375 432 25,800 -1,740 Descending Denver Center
04:41PM 40.5631 -103.8236 213° Southwest 373 429 23,900 -1,980 Descending Denver Center
04:42PM 40.4653 -103.9108 214° Southwest 354 407 21,800 -1,860 Descending Denver Center
04:43PM 40.3828 -103.9814 213° Southwest 348 400 20,100 -1,080 Descending Denver Center
04:44PM 40.3094 -104.0544 217° Southwest 334 384 19,600 -840 Descending Denver Center
04:45PM 40.2517 -104.1194 221° Southwest 325 374 18,500 -1,380 Descending Denver Center
04:46PM 40.1661 -104.2128 220° Southwest 328 377 16,800 -1,560 Descending Denver Center
04:47PM 40.0972 -104.2875 220° Southwest 324 373 15,300 -1,140 Descending Denver Center
04:48PM 40.0419 -104.3469 219° Southwest 309 356 14,500 -1,020 Descending Denver Center
04:48PM 39.9833 -104.4167 222° Southwest 314 361 13,600 -960 Descending Denver TRACON
04:49PM 39.9167 -104.4833 217° Southwest 308 354 13,000 -900 Descending Denver TRACON
04:50PM 39.8333 -104.5000 189° South 275 316 11,900 -1,140 Descending Denver TRACON
04:51PM 39.7667 -104.5000 180° South 259 298 10,800 -1,200 Descending Denver TRACON
04:52PM 39.7381 -104.5019 183° South 249 287 10,200 -1,320 Descending Denver Center
04:53PM 39.6842 -104.5461 212° Southwest 246 283 8,800 -1,140 Descending Denver Center
04:54PM 39.7036 -104.6228 288° West 239 275 7,900 -1,020 Descending Denver Center
04:55PM 39.7606 -104.6417 346° North 202 232 6,800 -1,020 Descending Denver Center
04:56PM 39.8069 -104.6417 360° North 167 192 5,900 -720 Descending Denver Center
04:57PM 39.8472 -104.6414 360° North 152 175 5,400 -540 Descending Denver Center